Weather at Nanga Labang Airstrip

Public forecast

Using degrees Celsius for public forecast. Weather courtesy of forecast.io.

Closest aviation weather report (METAR) to Nanga Labang Airstrip

Closest report is Simanggang Airport, 60.7 nm (112.5 km) N. Retrieved 2021/07/31 04:00 UTC (59 minutes ago):

WBGY 310400Z VRB03KT 9999 FEW020 32/25 Q1012

Closest aviation forecast (TAF) to Nanga Labang Airstrip

Closest forecast is Kuching International Airport, 108.7 nm (201.3 km) NW. Retrieved 2021-07-31 00:11 UTC (5 hours ago):

TAF WBGG 302300Z 3100/0100 VRB03KT 9999 FEW020 TEMPO 3108/3112 4000 TSRA FEW015CB